Time;durP1;ratioP1;P1;durP2;ratioP2;P2;SDS_P1;SDS_P2;PMS_P1;PMS_P2;Temp;Humidity;BMP_temperature;BMP_pressure;BME280_temperature;BME280_humidity;BME280_pressure;Samples;Min_cycle;Max_cycle;Signal;HPM_P1;HPM_P2
2020/12/15 09:17:47;;;;;;;3.37;1.57;;;11.60;99.90;;;;;;4698891;23;20228;-76
2020/12/15 09:20:24;;;;;;;2.60;1.53;;;11.70;99.90;;;;;;4946293;28;20679;-74
2020/12/15 09:22:51;;;;;;;2.87;2.03;;;11.70;99.90;;;;;;4939612;29;20242;-79
2020/12/15 09:25:17;;;;;;;2.57;1.70;;;11.70;99.90;;;;;;4957698;29;20269;-68
2020/12/15 09:27:45;;;;;;;3.03;1.60;;;11.70;99.90;;;;;;4928988;29;20720;-72
2020/12/15 09:30:12;;;;;;;3.33;1.87;;;11.70;99.90;;;;;;4918387;29;20584;-76
2020/12/15 09:32:38;;;;;;;2.70;1.97;;;11.70;99.90;;;;;;4928320;29;20211;-76
2020/12/15 09:35:06;;;;;;;2.67;1.47;;;11.70;99.90;;;;;;4936154;29;20746;-76
2020/12/15 09:37:32;;;;;;;2.13;1.43;;;11.70;99.90;;;;;;4927969;29;20567;-77
2020/12/15 09:39:59;;;;;;;2.57;1.53;;;11.70;99.90;;;;;;4923676;29;20213;-73
2020/12/15 09:42:26;;;;;;;3.80;1.57;;;11.80;99.90;;;;;;4916550;29;20209;-76
2020/12/15 09:44:52;;;;;;;2.47;1.70;;;11.80;99.90;;;;;;4935772;29;20331;-71
2020/12/15 09:47:18;;;;;;;3.47;1.77;;;11.90;99.90;;;;;;4937421;29;20205;-75
2020/12/15 09:49:45;;;;;;;4.70;1.67;;;11.90;99.90;;;;;;4938558;29;20209;-74
2020/12/15 09:52:12;;;;;;;2.50;1.53;;;11.90;99.90;;;;;;4937990;29;20540;-74
2020/12/15 09:54:38;;;;;;;4.37;2.27;;;11.90;99.90;;;;;;4938032;29;20232;-75
2020/12/15 09:57:05;;;;;;;3.53;1.80;;;12.00;99.90;;;;;;4938504;29;20298;-75
2020/12/15 09:59:32;;;;;;;2.00;1.47;;;11.90;99.90;;;;;;4938378;29;20212;-75
2020/12/15 10:01:58;;;;;;;2.57;1.70;;;11.90;99.90;;;;;;4938063;29;20213;-75
2020/12/15 10:04:24;;;;;;;4.20;1.80;;;11.90;99.90;;;;;;4938153;29;20699;-74
2020/12/15 10:06:50;;;;;;;2.87;1.70;;;11.80;99.90;;;;;;4938440;29;20560;-74
2020/12/15 10:09:18;;;;;;;3.07;1.87;;;11.90;99.90;;;;;;4938717;29;20209;-75
2020/12/15 10:11:44;;;;;;;3.83;2.13;;;12.00;99.90;;;;;;4938459;29;20239;-74
2020/12/15 10:14:10;;;;;;;4.10;1.90;;;12.00;99.90;;;;;;4938179;29;20225;-76
2020/12/15 10:16:37;;;;;;;2.40;1.77;;;12.00;99.90;;;;;;4938308;29;20568;-75
2020/12/15 10:19:03;;;;;;;4.00;2.00;;;12.10;99.90;;;;;;4938073;29;20260;-75
2020/12/15 10:21:29;;;;;;;4.10;2.27;;;12.00;99.90;;;;;;4938529;29;20232;-75
2020/12/15 10:23:56;;;;;;;3.80;2.47;;;12.00;99.90;;;;;;4938015;29;20244;-75
2020/12/15 10:26:24;;;;;;;4.93;2.90;;;12.00;99.90;;;;;;4938248;29;20212;-75
2020/12/15 10:28:53;;;;;;;2.90;1.67;;;11.90;99.90;;;;;;4938156;29;20209;-75
2020/12/15 10:31:19;;;;;;;3.53;2.47;;;12.00;99.90;;;;;;4938079;29;20209;-74
2020/12/15 10:33:45;;;;;;;4.10;2.70;;;11.90;99.90;;;;;;4937387;29;20232;-75
2020/12/15 10:36:12;;;;;;;3.20;2.13;;;11.90;99.90;;;;;;4937902;29;20216;-76
2020/12/15 10:38:39;;;;;;;4.07;2.47;;;11.80;99.90;;;;;;4937513;29;20213;-77
2020/12/15 10:41:05;;;;;;;4.97;2.40;;;11.80;99.90;;;;;;4937684;29;20252;-76
2020/12/15 10:43:32;;;;;;;5.77;2.50;;;11.80;99.90;;;;;;4937553;29;20734;-75
2020/12/15 10:45:58;;;;;;;4.87;2.30;;;11.80;99.90;;;;;;4937848;29;20549;-75
2020/12/15 10:48:25;;;;;;;3.73;2.73;;;11.70;99.90;;;;;;4937512;29;20295;-75
2020/12/15 10:50:51;;;;;;;5.00;2.67;;;11.50;99.90;;;;;;4938110;29;20248;-76
2020/12/15 10:53:18;;;;;;;3.30;1.83;;;11.50;99.90;;;;;;4937592;29;20205;-75
2020/12/15 10:55:48;;;;;;;4.47;2.20;;;11.60;99.90;;;;;;4937295;29;20704;-75
2020/12/15 10:58:14;;;;;;;3.83;2.47;;;11.70;99.90;;;;;;4937477;29;20213;-75
2020/12/15 11:00:41;;;;;;;3.70;2.10;;;11.70;99.90;;;;;;4937413;29;20222;-75
2020/12/15 11:03:08;;;;;;;3.87;2.20;;;11.70;99.90;;;;;;4937127;29;20213;-76
2020/12/15 11:05:35;;;;;;;3.40;2.10;;;11.70;99.90;;;;;;4937490;29;20268;-75
2020/12/15 11:08:01;;;;;;;4.67;2.10;;;11.70;99.90;;;;;;4937565;29;20220;-75
2020/12/15 11:10:27;;;;;;;3.13;1.90;;;11.70;99.90;;;;;;4937549;29;20247;-76
2020/12/15 11:12:54;;;;;;;3.30;2.00;;;11.70;99.90;;;;;;4936411;29;20232;-76
2020/12/15 11:15:20;;;;;;;3.53;1.90;;;11.80;99.90;;;;;;4937221;29;20299;-75
2020/12/15 11:17:47;;;;;;;3.13;1.83;;;11.80;99.90;;;;;;4937082;29;20228;-74
2020/12/15 11:20:13;;;;;;;2.83;1.90;;;11.80;99.90;;;;;;4937039;29;20668;-76
2020/12/15 11:22:40;;;;;;;3.00;1.90;;;11.80;99.90;;;;;;4937231;29;20213;-75
2020/12/15 11:25:06;;;;;;;3.07;2.00;;;11.90;99.90;;;;;;4936805;29;20240;-75
2020/12/15 11:27:33;;;;;;;3.60;2.27;;;12.00;99.90;;;;;;4936913;29;20216;-75
2020/12/15 11:29:59;;;;;;;6.87;2.00;;;12.00;99.90;;;;;;4936927;29;20216;-75
2020/12/15 11:32:25;;;;;;;3.97;2.07;;;11.90;99.90;;;;;;4937165;29;20209;-76
2020/12/15 11:34:52;;;;;;;3.83;2.00;;;11.90;99.90;;;;;;4936842;29;20224;-75
2020/12/15 11:37:18;;;;;;;3.77;2.03;;;12.00;99.90;;;;;;4936962;29;20212;-75
2020/12/15 11:39:44;;;;;;;4.80;2.20;;;12.10;99.90;;;;;;4936740;29;20219;-75
2020/12/15 11:42:12;;;;;;;2.57;1.70;;;11.90;99.90;;;;;;4936779;29;20268;-75
2020/12/15 11:44:38;;;;;;;4.13;2.37;;;11.80;99.90;;;;;;4936515;29;20240;-74
2020/12/15 11:47:05;;;;;;;2.67;1.87;;;11.90;99.90;;;;;;4936860;29;20572;-74
2020/12/15 11:49:32;;;;;;;2.27;1.63;;;12.00;99.90;;;;;;4936645;29;20205;-75
2020/12/15 11:51:59;;;;;;;2.43;1.57;;;12.10;99.90;;;;;;4936630;29;20213;-74
2020/12/15 11:54:26;;;;;;;3.13;1.80;;;12.20;99.90;;;;;;4936510;29;20232;-74
2020/12/15 11:56:53;;;;;;;2.53;1.70;;;12.30;99.90;;;;;;4936413;29;20275;-74
2020/12/15 11:59:19;;;;;;;2.70;2.20;;;12.30;99.90;;;;;;4936164;29;20658;-75
2020/12/15 12:01:45;;;;;;;2.97;1.80;;;12.30;99.90;;;;;;4936347;29;20244;-75
2020/12/15 12:04:12;;;;;;;2.30;1.80;;;12.30;99.90;;;;;;4936115;29;20303;-74
2020/12/15 12:06:38;;;;;;;2.27;1.53;;;12.30;99.90;;;;;;4935286;29;20676;-75
2020/12/15 12:09:05;;;;;;;2.63;2.00;;;12.00;99.90;;;;;;4935667;29;20220;-76
2020/12/15 12:11:32;;;;;;;2.63;1.73;;;12.00;99.90;;;;;;4935528;29;20296;-76
2020/12/15 12:13:58;;;;;;;2.70;1.93;;;12.10;99.90;;;;;;4935558;29;20228;-75
2020/12/15 12:16:24;;;;;;;3.03;1.93;;;12.20;99.90;;;;;;4936304;29;20220;-75
2020/12/15 12:18:50;;;;;;;5.13;2.30;;;12.40;99.90;;;;;;4936150;29;20216;-75
2020/12/15 12:21:16;;;;;;;3.90;2.53;;;12.50;99.90;;;;;;4935823;29;20235;-76
2020/12/15 12:23:43;;;;;;;2.87;2.27;;;12.60;99.90;;;;;;4935553;29;20243;-77
2020/12/15 12:26:14;;;;;;;4.27;2.20;;;12.60;99.90;;;;;;4935801;29;20296;-75
2020/12/15 12:28:40;;;;;;;5.73;2.60;;;12.70;99.90;;;;;;4935088;29;20205;-77
2020/12/15 12:31:06;;;;;;;4.20;2.50;;;12.80;99.90;;;;;;4935430;29;20624;-77
2020/12/15 12:33:32;;;;;;;3.33;2.13;;;12.90;99.90;;;;;;4935152;29;20213;-77
2020/12/15 12:35:58;;;;;;;3.53;2.33;;;12.90;99.90;;;;;;4935915;29;20580;-78
2020/12/15 12:38:24;;;;;;;5.00;2.33;;;12.90;99.90;;;;;;4935636;29;20208;-78
2020/12/15 12:40:51;;;;;;;3.80;2.60;;;12.90;99.90;;;;;;4935630;29;20580;-77
2020/12/15 12:43:18;;;;;;;4.50;2.30;;;12.80;99.90;;;;;;4935834;29;20205;-76
2020/12/15 12:45:45;;;;;;;4.17;2.87;;;12.90;99.90;;;;;;4935734;29;20235;-77
2020/12/15 12:48:11;;;;;;;4.57;2.50;;;12.70;99.90;;;;;;4932071;29;20737;-76
2020/12/15 12:50:38;;;;;;;5.07;2.60;;;12.70;99.90;;;;;;4935972;29;20209;-77
2020/12/15 12:53:04;;;;;;;3.40;2.37;;;12.50;99.90;;;;;;4934607;29;20209;-77
2020/12/15 12:55:30;;;;;;;4.33;2.10;;;12.50;99.90;;;;;;4935337;29;20240;-78
2020/12/15 12:57:57;;;;;;;3.90;2.53;;;12.70;99.90;;;;;;4931180;29;20663;-78
2020/12/15 13:00:24;;;;;;;3.87;2.80;;;12.80;99.90;;;;;;4930396;29;20603;-78
2020/12/15 13:02:50;;;;;;;5.97;2.93;;;12.90;99.90;;;;;;4933920;29;20220;-80
2020/12/15 13:05:17;;;;;;;4.17;2.63;;;12.80;99.90;;;;;;4933305;29;20237;-78
2020/12/15 13:07:46;;;;;;;3.33;2.40;;;12.90;99.90;;;;;;4933283;29;20299;-77
2020/12/15 13:10:14;;;;;;;3.13;2.20;;;13.10;99.90;;;;;;4933732;29;20220;-75
2020/12/15 13:12:40;;;;;;;3.60;2.20;;;13.00;99.90;;;;;;4933266;29;20307;-78
2020/12/15 13:15:07;;;;;;;4.80;2.47;;;12.90;99.90;;;;;;4933167;29;20229;-77
2020/12/15 13:17:35;;;;;;;3.97;2.57;;;12.80;99.90;;;;;;4933567;29;20224;-79
2020/12/15 13:20:03;;;;;;;5.93;2.73;;;12.70;99.90;;;;;;4933045;29;20212;-78
2020/12/15 13:22:29;;;;;;;5.23;2.43;;;12.70;99.90;;;;;;4933262;29;20213;-78
2020/12/15 13:24:58;;;;;;;4.40;3.00;;;12.70;99.90;;;;;;4933600;29;20244;-77
2020/12/15 13:27:24;;;;;;;7.23;2.73;;;12.80;99.90;;;;;;4932158;29;20272;-74
2020/12/15 13:29:50;;;;;;;3.07;2.27;;;12.90;99.90;;;;;;4932628;29;20223;-75
2020/12/15 13:32:16;;;;;;;4.00;2.10;;;12.90;99.90;;;;;;4933673;29;20541;-74
2020/12/15 13:34:44;;;;;;;3.83;2.67;;;12.80;99.90;;;;;;4933209;29;20229;-75
2020/12/15 13:37:11;;;;;;;4.70;2.50;;;12.50;99.90;;;;;;4934831;29;20220;-77
2020/12/15 13:39:37;;;;;;;4.30;2.63;;;12.40;99.90;;;;;;4925937;29;20217;-80
2020/12/15 13:42:04;;;;;;;3.47;2.63;;;12.40;99.90;;;;;;4917269;29;20214;-79
2020/12/15 13:44:31;;;;;;;7.37;2.63;;;12.30;99.90;;;;;;4917450;29;20750;-77
2020/12/15 13:46:57;;;;;;;3.93;2.70;;;12.40;99.90;;;;;;4927926;29;20220;-74
2020/12/15 13:49:23;;;;;;;3.30;2.30;;;12.40;99.90;;;;;;4937435;29;20205;-75
2020/12/15 13:51:50;;;;;;;2.93;2.53;;;12.40;99.90;;;;;;4936578;29;20213;-77
2020/12/15 13:54:17;;;;;;;6.87;2.80;;;12.40;99.90;;;;;;4937133;29;20229;-74
2020/12/15 13:56:43;;;;;;;2.97;2.03;;;12.40;99.90;;;;;;4936230;29;20228;-79
2020/12/15 13:59:09;;;;;;;6.23;2.37;;;12.50;99.90;;;;;;4936499;29;20240;-78
2020/12/15 14:01:35;;;;;;;4.17;2.40;;;12.60;99.90;;;;;;4933030;29;20229;-75
2020/12/15 14:04:02;;;;;;;4.67;2.50;;;12.50;99.90;;;;;;4916945;29;20237;-78
2020/12/15 14:06:28;;;;;;;2.97;2.23;;;12.50;99.90;;;;;;4917569;29;20214;-78
2020/12/15 14:08:55;;;;;;;4.00;2.50;;;12.40;99.90;;;;;;4931429;29;20210;-78
2020/12/15 14:11:21;;;;;;;4.10;2.43;;;12.30;99.90;;;;;;4915740;29;20731;-69
2020/12/15 14:13:47;;;;;;;6.40;2.07;;;12.20;99.90;;;;;;4918262;29;20237;-69
2020/12/15 14:16:13;;;;;;;6.93;2.53;;;12.10;99.90;;;;;;4918916;29;20213;-69
2020/12/15 14:18:39;;;;;;;3.27;2.10;;;11.90;99.90;;;;;;4918432;29;20225;-73
2020/12/15 14:21:06;;;;;;;3.07;1.77;;;11.80;99.90;;;;;;4919175;29;20209;-70
2020/12/15 14:23:33;;;;;;;3.70;1.70;;;11.70;99.90;;;;;;4918578;29;20224;-69
2020/12/15 14:26:04;;;;;;;4.70;1.70;;;11.70;99.90;;;;;;4919153;29;20217;-69
2020/12/15 14:28:31;;;;;;;2.30;1.80;;;11.60;99.90;;;;;;4918659;29;20216;-73
2020/12/15 14:30:57;;;;;;;3.60;1.70;;;11.50;99.90;;;;;;4918429;29;20205;-69
2020/12/15 14:33:23;;;;;;;4.47;1.73;;;11.50;99.90;;;;;;4918439;29;20272;-69
2020/12/15 14:35:49;;;;;;;2.43;1.60;;;11.50;99.90;;;;;;4918693;29;20209;-73
2020/12/15 14:38:16;;;;;;;4.10;1.80;;;11.50;99.90;;;;;;4918587;29;20240;-69
2020/12/15 14:40:42;;;;;;;3.43;1.70;;;11.50;99.90;;;;;;4917983;29;20289;-72
2020/12/15 14:43:09;;;;;;;2.70;1.50;;;11.40;99.90;;;;;;4918440;29;20209;-69
2020/12/15 14:45:35;;;;;;;3.90;1.80;;;11.30;99.90;;;;;;4918563;29;20246;-69
2020/12/15 14:48:02;;;;;;;5.27;3.00;;;11.40;99.90;;;;;;4916902;29;20210;-69
2020/12/15 14:50:28;;;;;;;4.50;1.90;;;11.30;99.90;;;;;;4918521;29;20210;-70
2020/12/15 14:52:54;;;;;;;5.73;1.90;;;11.40;99.90;;;;;;4918349;29;20210;-70
2020/12/15 14:55:21;;;;;;;3.37;2.03;;;11.30;99.90;;;;;;4917709;29;20581;-70
2020/12/15 14:57:47;;;;;;;12.80;2.70;;;11.30;99.90;;;;;;4918124;29;20284;-69
2020/12/15 15:00:14;;;;;;;3.93;2.03;;;11.30;99.90;;;;;;4917757;29;20763;-70
2020/12/15 15:02:40;;;;;;;4.87;2.30;;;11.10;99.90;;;;;;4917857;29;20265;-72
2020/12/15 15:05:07;;;;;;;4.67;2.30;;;11.10;99.90;;;;;;4917606;29;20237;-69
2020/12/15 15:07:34;;;;;;;3.23;2.10;;;11.10;99.90;;;;;;4917841;29;20213;-70
2020/12/15 15:10:00;;;;;;;3.30;2.10;;;11.10;99.90;;;;;;4917695;29;20210;-69
2020/12/15 15:12:26;;;;;;;4.60;2.17;;;11.10;99.90;;;;;;4917683;29;20215;-70
2020/12/15 15:14:53;;;;;;;2.57;1.80;;;11.10;99.90;;;;;;4918683;29;20225;-70
2020/12/15 15:17:20;;;;;;;4.47;2.40;;;11.10;99.90;;;;;;4917190;29;20234;-70
2020/12/15 15:19:47;;;;;;;4.10;2.10;;;11.00;99.90;;;;;;4917558;29;20205;-70
2020/12/15 15:22:13;;;;;;;3.93;2.30;;;10.90;99.90;;;;;;4917843;29;20221;-70
2020/12/15 15:24:40;;;;;;;2.77;1.97;;;10.80;99.90;;;;;;4917277;29;20241;-73
2020/12/15 15:27:06;;;;;;;4.77;2.40;;;10.70;99.90;;;;;;4917450;29;20214;-70
2020/12/15 15:29:35;;;;;;;3.50;1.70;;;10.70;99.90;;;;;;4917124;29;20213;-70
2020/12/15 15:32:01;;;;;;;2.40;2.10;;;10.60;99.90;;;;;;4917119;29;20281;-70
2020/12/15 15:34:28;;;;;;;4.43;2.50;;;10.50;99.90;;;;;;4917382;29;20237;-70
2020/12/15 15:36:54;;;;;;;3.13;2.47;;;10.40;99.90;;;;;;4917685;29;20232;-70
2020/12/15 15:39:20;;;;;;;2.23;1.77;;;10.30;99.90;;;;;;4917301;29;20669;-71
2020/12/15 15:41:48;;;;;;;3.27;2.40;;;10.20;99.90;;;;;;4917141;29;20210;-72
2020/12/15 15:44:14;;;;;;;3.67;2.30;;;10.00;99.90;;;;;;4916980;29;20237;-71
2020/12/15 15:46:41;;;;;;;3.27;2.30;;;9.90;99.90;;;;;;4917257;29;20288;-73
2020/12/15 15:49:08;;;;;;;2.63;2.17;;;9.90;99.90;;;;;;4917209;29;20210;-71
2020/12/15 15:51:36;;;;;;;3.20;1.80;;;9.80;99.90;;;;;;4916625;29;20225;-75
2020/12/15 15:54:02;;;;;;;2.97;2.00;;;9.80;99.90;;;;;;4916684;29;20233;-76
2020/12/15 15:56:29;;;;;;;3.67;1.97;;;9.80;99.90;;;;;;4917356;29;20206;-77
2020/12/15 15:58:55;;;;;;;5.23;2.50;;;9.60;99.90;;;;;;4916666;29;20569;-74
2020/12/15 16:01:25;;;;;;;2.70;1.93;;;9.50;99.90;;;;;;4916779;29;20225;-76
2020/12/15 16:03:51;;;;;;;5.77;2.33;;;9.50;99.90;;;;;;4916628;29;20237;-72
2020/12/15 16:06:17;;;;;;;3.33;2.10;;;9.40;99.90;;;;;;4916841;29;20217;-73
2020/12/15 16:08:44;;;;;;;3.33;2.33;;;9.40;99.90;;;;;;4916609;29;20213;-72
2020/12/15 16:11:12;;;;;;;5.17;2.73;;;9.30;99.90;;;;;;4916677;29;20224;-75
2020/12/15 16:13:38;;;;;;;4.13;2.37;;;9.20;99.90;;;;;;4917099;29;20272;-75
2020/12/15 16:16:04;;;;;;;3.50;2.20;;;9.10;99.90;;;;;;4916608;29;20215;-76
2020/12/15 16:18:31;;;;;;;5.87;2.40;;;9.10;99.90;;;;;;4916523;29;20225;-75
2020/12/15 16:20:57;;;;;;;3.00;2.10;;;9.10;99.90;;;;;;4916524;29;20721;-76
2020/12/15 16:23:23;;;;;;;3.07;2.17;;;9.00;99.90;;;;;;4916544;29;20218;-76
2020/12/15 16:25:50;;;;;;;5.23;2.53;;;9.00;99.90;;;;;;4916736;29;20727;-76
2020/12/15 16:28:16;;;;;;;3.43;2.53;;;8.90;99.90;;;;;;4916563;29;20220;-76
2020/12/15 16:30:43;;;;;;;5.30;2.60;;;8.90;99.90;;;;;;4916324;29;20210;-75
2020/12/15 16:33:09;;;;;;;5.93;2.33;;;8.80;99.90;;;;;;4916398;29;20220;-76
2020/12/15 16:35:36;;;;;;;3.97;2.40;;;8.80;99.90;;;;;;4916606;29;20240;-76
2020/12/15 16:38:04;;;;;;;4.90;2.67;;;8.80;99.90;;;;;;4916713;29;20213;-76
2020/12/15 16:40:31;;;;;;;4.83;3.00;;;8.80;99.90;;;;;;4916161;29;20212;-77
2020/12/15 16:42:58;;;;;;;3.63;2.53;;;8.80;99.90;;;;;;4916185;29;20673;-74
2020/12/15 16:45:24;;;;;;;3.93;2.67;;;8.80;99.90;;;;;;4916255;29;20248;-77
2020/12/15 16:47:50;;;;;;;4.10;2.47;;;8.90;99.90;;;;;;4911530;29;20205;-71
2020/12/15 16:50:16;;;;;;;6.83;3.07;;;8.90;99.90;;;;;;4916339;29;20216;-70
2020/12/15 16:52:43;;;;;;;7.00;3.03;;;8.90;99.90;;;;;;4916456;29;20213;-71
2020/12/15 16:55:09;;;;;;;4.13;2.70;;;8.80;99.90;;;;;;4915847;29;20225;-71
2020/12/15 16:57:36;;;;;;;7.63;3.00;;;8.80;99.90;;;;;;4916454;29;20213;-71
2020/12/15 17:00:05;;;;;;;4.13;2.70;;;8.80;99.90;;;;;;4916492;29;20209;-72
2020/12/15 17:02:31;;;;;;;4.17;2.30;;;8.80;99.90;;;;;;4916099;29;20209;-73
2020/12/15 17:04:57;;;;;;;5.40;2.40;;;8.80;99.90;;;;;;4916164;29;20642;-71
2020/12/15 17:07:24;;;;;;;3.63;2.30;;;8.80;99.90;;;;;;4915760;29;20265;-72
2020/12/15 17:09:50;;;;;;;6.73;2.63;;;8.70;99.90;;;;;;4916208;29;20210;-72
2020/12/15 17:12:16;;;;;;;6.77;2.60;;;8.70;99.90;;;;;;4935547;29;20742;-73
2020/12/15 17:14:42;;;;;;;4.77;2.27;;;8.80;99.90;;;;;;4939057;29;20256;-72
2020/12/15 17:17:09;;;;;;;5.90;2.40;;;8.80;99.90;;;;;;4939057;29;20264;-72
2020/12/15 17:19:36;;;;;;;3.37;2.30;;;8.70;99.90;;;;;;4938199;29;20220;-72
2020/12/15 17:22:06;;;;;;;4.33;2.20;;;8.70;99.90;;;;;;4938908;29;20219;-73
2020/12/15 17:24:32;;;;;;;5.47;2.60;;;8.70;99.90;;;;;;4938457;29;20241;-72
2020/12/15 17:26:59;;;;;;;3.37;2.40;;;8.60;99.90;;;;;;4939291;29;20209;-72
2020/12/15 17:29:25;;;;;;;4.73;2.50;;;8.60;99.90;;;;;;4938761;29;20668;-72
2020/12/15 17:31:52;;;;;;;5.97;2.70;;;8.60;99.90;;;;;;4938096;29;20205;-72
2020/12/15 17:34:19;;;;;;;3.90;2.33;;;8.60;99.90;;;;;;4938987;29;20260;-72
2020/12/15 17:36:45;;;;;;;6.30;2.57;;;8.60;99.90;;;;;;4938444;29;20537;-72
2020/12/15 17:39:12;;;;;;;4.43;2.20;;;8.50;99.90;;;;;;4938736;29;20204;-72
2020/12/15 17:41:38;;;;;;;3.33;2.37;;;8.50;99.90;;;;;;4938737;29;20209;-72
2020/12/15 17:44:04;;;;;;;4.17;2.13;;;8.50;99.90;;;;;;4938317;29;20272;-72
2020/12/15 17:46:32;;;;;;;4.23;2.47;;;8.40;99.90;;;;;;4938228;29;20260;-73
2020/12/15 17:48:58;;;;;;;4.33;2.30;;;8.40;99.90;;;;;;4938355;29;20209;-73
2020/12/15 17:51:26;;;;;;;3.87;2.53;;;8.40;99.90;;;;;;4937984;29;20608;-72
2020/12/15 17:53:52;;;;;;;7.97;3.40;;;8.40;99.90;;;;;;4938298;29;20228;-71
2020/12/15 17:56:18;;;;;;;5.90;2.87;;;8.40;99.90;;;;;;4938023;29;20216;-73
2020/12/15 17:58:44;;;;;;;4.63;2.80;;;8.40;99.90;;;;;;4938753;29;20209;-73
2020/12/15 18:01:10;;;;;;;5.47;2.80;;;8.30;99.90;;;;;;4938481;29;20209;-72
2020/12/15 18:03:37;;;;;;;5.77;2.90;;;8.30;99.90;;;;;;4938314;29;20260;-72
2020/12/15 18:06:03;;;;;;;6.63;3.10;;;8.20;99.90;;;;;;4938280;29;20237;-72
2020/12/15 18:08:30;;;;;;;6.73;3.10;;;8.20;99.90;;;;;;4938074;29;20263;-72
2020/12/15 18:10:56;;;;;;;5.97;2.87;;;8.10;99.90;;;;;;4938110;29;20205;-72
2020/12/15 18:13:23;;;;;;;6.10;3.00;;;8.10;99.90;;;;;;4938094;29;20205;-72
2020/12/15 18:15:49;;;;;;;5.80;3.40;;;8.20;99.90;;;;;;4937780;29;20221;-73
2020/12/15 18:18:16;;;;;;;5.77;3.37;;;8.20;99.90;;;;;;4937415;29;20220;-72
2020/12/15 18:20:42;;;;;;;6.83;3.37;;;8.10;99.90;;;;;;4937158;29;20723;-72
2020/12/15 18:23:09;;;;;;;6.13;2.97;;;8.10;99.90;;;;;;4937649;29;20217;-72
2020/12/15 18:25:36;;;;;;;5.60;2.90;;;8.00;99.90;;;;;;4937871;29;20243;-72
2020/12/15 18:28:03;;;;;;;6.00;3.70;;;8.00;99.90;;;;;;4937793;29;20264;-73
2020/12/15 18:30:29;;;;;;;4.77;3.20;;;7.90;99.90;;;;;;4937656;29;20237;-72
2020/12/15 18:32:55;;;;;;;8.23;3.10;;;7.90;99.90;;;;;;4937170;29;20238;-72
2020/12/15 18:35:22;;;;;;;4.90;2.90;;;7.90;99.90;;;;;;4937557;29;20700;-72
2020/12/15 18:37:53;;;;;;;4.47;2.80;;;7.90;99.90;;;;;;4937572;29;20213;-72
2020/12/15 18:40:19;;;;;;;4.93;2.57;;;7.90;99.90;;;;;;4937366;29;20219;-73
2020/12/15 18:42:47;;;;;;;5.57;2.60;;;7.80;99.90;;;;;;4937809;29;20211;-72
2020/12/15 18:45:14;;;;;;;5.50;3.33;;;7.70;99.90;;;;;;4937376;29;20237;-72
2020/12/15 18:47:40;;;;;;;4.33;3.07;;;7.70;99.90;;;;;;4937451;29;20243;-71
2020/12/15 18:50:07;;;;;;;4.80;2.83;;;7.60;99.90;;;;;;4937099;29;20593;-72
2020/12/15 18:52:33;;;;;;;4.87;3.37;;;7.60;99.90;;;;;;4937184;29;20568;-71
2020/12/15 18:54:59;;;;;;;7.53;3.50;;;7.60;99.90;;;;;;4937521;29;20236;-71
2020/12/15 18:57:25;;;;;;;7.60;3.30;;;7.60;99.90;;;;;;4937034;29;20220;-72
2020/12/15 18:59:54;;;;;;;7.50;3.80;;;7.60;99.90;;;;;;4937105;29;20209;-71
2020/12/15 19:02:21;;;;;;;6.53;3.30;;;7.60;99.90;;;;;;4936824;29;20220;-72
2020/12/15 19:04:47;;;;;;;4.70;3.33;;;7.60;99.90;;;;;;4937065;29;20241;-72
2020/12/15 19:07:14;;;;;;;4.50;3.10;;;7.70;99.90;;;;;;4936626;29;20660;-72
2020/12/15 19:09:40;;;;;;;3.77;2.80;;;7.70;99.90;;;;;;4936779;29;20205;-72
2020/12/15 19:12:06;;;;;;;7.60;3.03;;;7.70;99.90;;;;;;4936593;29;20664;-72
2020/12/15 19:14:32;;;;;;;6.60;3.10;;;7.80;99.90;;;;;;4936541;29;20229;-72
2020/12/15 19:16:59;;;;;;;3.47;2.77;;;7.90;99.90;;;;;;4936681;29;20238;-72
2020/12/15 19:19:26;;;;;;;6.20;2.80;;;7.80;99.90;;;;;;4936455;29;20222;-72
2020/12/15 19:21:56;;;;;;;4.03;2.87;;;7.80;99.90;;;;;;4936237;29;20212;-72
2020/12/15 19:24:22;;;;;;;5.33;3.40;;;7.70;99.90;;;;;;4936341;29;20603;-72
2020/12/15 19:26:49;;;;;;;7.13;3.47;;;7.70;99.90;;;;;;4937220;29;20208;-72
2020/12/15 19:29:15;;;;;;;5.47;3.17;;;7.70;99.90;;;;;;4936800;29;20217;-71
2020/12/15 19:31:42;;;;;;;5.57;3.83;;;7.70;99.90;;;;;;4936990;29;20209;-72
2020/12/15 19:34:09;;;;;;;5.77;3.00;;;7.70;99.90;;;;;;4936174;29;20616;-71
2020/12/15 19:36:37;;;;;;;9.03;4.20;;;7.70;99.90;;;;;;4936849;29;20568;-71
2020/12/15 19:39:05;;;;;;;7.77;3.33;;;7.60;99.90;;;;;;4936927;29;20208;-71
2020/12/15 19:41:31;;;;;;;8.37;3.77;;;7.60;99.90;;;;;;4936772;29;20220;-71
2020/12/15 19:43:57;;;;;;;6.67;3.83;;;7.70;99.90;;;;;;4936842;29;20237;-72
2020/12/15 19:46:24;;;;;;;6.53;3.30;;;7.60;99.90;;;;;;4936905;29;20213;-72
2020/12/15 19:48:50;;;;;;;7.37;4.23;;;7.60;99.90;;;;;;4936809;29;20216;-72
2020/12/15 19:51:17;;;;;;;5.83;3.27;;;7.60;99.90;;;;;;4936494;29;20205;-72
2020/12/15 19:53:44;;;;;;;7.37;3.60;;;7.50;99.90;;;;;;4936307;29;20588;-71
2020/12/15 19:56:10;;;;;;;6.07;3.60;;;7.50;99.90;;;;;;4945143;29;20211;-71
2020/12/15 19:58:36;;;;;;;4.63;3.53;;;7.40;99.90;;;;;;4953606;29;20663;-71
2020/12/15 20:01:03;;;;;;;5.47;3.20;;;7.40;99.90;;;;;;4952547;29;20259;-71
2020/12/15 20:03:30;;;;;;;5.27;3.40;;;7.40;99.90;;;;;;4953654;29;20212;-72
2020/12/15 20:05:56;;;;;;;4.70;3.13;;;7.40;99.90;;;;;;4954839;29;20236;-71
2020/12/15 20:08:23;;;;;;;4.13;3.00;;;7.40;99.90;;;;;;4955645;29;20675;-72
2020/12/15 20:10:49;;;;;;;6.83;3.80;;;7.40;99.90;;;;;;4955588;29;20208;-72
2020/12/15 20:13:15;;;;;;;5.43;3.17;;;7.30;99.90;;;;;;4955670;29;20548;-72
2020/12/15 20:15:42;;;;;;;6.93;3.67;;;7.30;99.90;;;;;;4955184;29;20279;-72
2020/12/15 20:18:08;;;;;;;8.80;3.90;;;7.40;99.90;;;;;;4955181;29;20220;-72
2020/12/15 20:20:34;;;;;;;6.17;3.03;;;7.50;99.90;;;;;;4955453;29;20215;-71
2020/12/15 20:23:00;;;;;;;4.93;3.17;;;7.60;99.90;;;;;;4954833;29;20244;-71
2020/12/15 20:25:27;;;;;;;5.30;3.80;;;7.60;99.90;;;;;;4954960;29;20239;-72
2020/12/15 20:27:54;;;;;;;4.83;3.27;;;7.70;99.90;;;;;;4955216;29;20659;-71
2020/12/15 20:30:20;;;;;;;6.33;3.67;;;7.80;99.90;;;;;;4954813;29;20639;-71
2020/12/15 20:32:46;;;;;;;6.63;3.80;;;7.80;99.90;;;;;;4955025;29;20208;-71
2020/12/15 20:35:12;;;;;;;7.70;4.20;;;7.90;99.90;;;;;;4954980;29;20324;-72
2020/12/15 20:37:38;;;;;;;10.23;4.50;;;7.90;99.90;;;;;;4954990;29;20219;-72
2020/12/15 20:40:05;;;;;;;8.07;4.70;;;8.00;99.90;;;;;;4954877;29;20208;-72
2020/12/15 20:42:32;;;;;;;11.53;4.77;;;8.10;99.90;;;;;;4955088;29;20373;-72
2020/12/15 20:44:58;;;;;;;9.93;4.67;;;8.20;99.90;;;;;;4954932;29;20247;-72
2020/12/15 20:47:24;;;;;;;8.87;4.57;;;8.20;99.90;;;;;;4954666;29;20212;-72
2020/12/15 20:49:50;;;;;;;7.47;4.53;;;8.20;99.90;;;;;;4954272;29;20671;-72
2020/12/15 20:52:16;;;;;;;7.43;4.10;;;8.20;99.90;;;;;;4953245;29;20200;-72
2020/12/15 20:54:43;;;;;;;9.73;4.53;;;8.20;99.90;;;;;;4954219;29;20227;-72
2020/12/15 20:57:09;;;;;;;9.47;5.10;;;8.20;99.90;;;;;;4954233;29;20211;-71
2020/12/15 20:59:36;;;;;;;8.23;4.40;;;8.20;99.90;;;;;;4953120;29;20750;-72
2020/12/15 21:02:02;;;;;;;10.33;4.53;;;8.20;99.90;;;;;;4954849;29;20212;-71
2020/12/15 21:04:28;;;;;;;9.30;4.63;;;8.20;99.90;;;;;;4954783;29;20243;-72
2020/12/15 21:06:55;;;;;;;10.60;5.23;;;8.20;99.90;;;;;;4954728;29;20208;-72
2020/12/15 21:09:21;;;;;;;8.30;4.40;;;8.20;99.90;;;;;;4954623;29;20212;-72
2020/12/15 21:11:47;;;;;;;9.83;4.00;;;8.20;99.90;;;;;;4954944;29;20208;-72
2020/12/15 21:14:13;;;;;;;6.87;3.97;;;8.20;99.90;;;;;;4955566;29;20232;-72
2020/12/15 21:16:41;;;;;;;8.67;4.20;;;8.30;99.90;;;;;;4954804;29;20208;-72
2020/12/15 21:19:07;;;;;;;10.07;4.60;;;8.20;99.90;;;;;;4954835;28;20216;-72
2020/12/15 21:21:33;;;;;;;6.93;4.10;;;8.20;99.90;;;;;;4954420;29;20340;-72
2020/12/15 21:23:59;;;;;;;7.57;3.97;;;8.20;99.90;;;;;;4954236;29;20228;-72
2020/12/15 21:26:26;;;;;;;10.53;3.53;;;8.20;99.90;;;;;;4954658;29;20239;-72
2020/12/15 21:28:52;;;;;;;5.87;3.50;;;8.30;99.90;;;;;;4954495;29;20682;-72
2020/12/15 21:31:24;;;;;;;8.30;3.57;;;8.40;99.90;;;;;;4954516;29;20219;-72
2020/12/15 21:33:51;;;;;;;7.87;3.80;;;8.50;99.90;;;;;;4954551;29;20583;-72
2020/12/15 21:36:17;;;;;;;7.30;3.40;;;8.40;99.90;;;;;;4954307;29;20583;-72
2020/12/15 21:38:44;;;;;;;6.53;3.60;;;8.40;99.90;;;;;;4954689;29;20204;-72
2020/12/15 21:41:10;;;;;;;7.13;3.70;;;8.40;99.90;;;;;;4954519;29;20208;-70
2020/12/15 21:43:36;;;;;;;6.37;3.37;;;8.40;99.90;;;;;;4954211;29;20216;-70
2020/12/15 21:46:03;;;;;;;8.00;2.87;;;8.40;99.90;;;;;;4954451;29;20299;-69
2020/12/15 21:48:29;;;;;;;6.83;2.73;;;8.50;99.90;;;;;;4954272;29;20268;-70
2020/12/15 21:50:56;;;;;;;4.60;2.87;;;8.40;99.90;;;;;;4954252;29;20215;-70
2020/12/15 21:53:22;;;;;;;7.40;2.77;;;8.30;99.90;;;;;;4954460;29;20215;-70
2020/12/15 21:55:49;;;;;;;4.17;2.47;;;8.30;99.90;;;;;;4954271;29;20208;-70
2020/12/15 21:58:15;;;;;;;4.37;2.47;;;8.30;99.90;;;;;;4956081;28;20208;-70
2020/12/15 22:00:41;;;;;;;4.03;2.20;;;8.30;99.90;;;;;;4957718;29;20616;-70
2020/12/15 22:03:07;;;;;;;3.77;2.80;;;8.30;99.90;;;;;;4957537;29;20215;-70